Time;durP1;ratioP1;P1;durP2;ratioP2;P2;SDS_P1;SDS_P2;PMS_P1;PMS_P2;Temp;Humidity;BMP_temperature;BMP_pressure;BME280_temperature;BME280_humidity;BME280_pressure;Samples;Min_cycle;Max_cycle;Signal;HPM_P1;HPM_P2
2022/09/23 00:01:08;;;;;;;6.03;5.07;;;;;;;13.18;69.52;100311.77;1705003;83;21284;-73
2022/09/23 00:03:37;;;;;;;6.33;4.93;;;;;;;13.17;69.56;100310.17;1709879;83;21403;-74
2022/09/23 00:06:07;;;;;;;6.47;5.33;;;;;;;13.17;69.57;100310.72;1712248;83;21758;-74
2022/09/23 00:08:34;;;;;;;6.03;5.30;;;;;;;13.11;69.57;100306.72;1711218;83;21414;-73
2022/09/23 00:11:09;;;;;;;7.43;5.20;;;;;;;13.10;69.64;100308.35;1710915;83;21292;-72
2022/09/23 00:13:37;;;;;;;8.97;6.30;;;;;;;13.07;69.70;100310.25;1711909;83;21918;-73
2022/09/23 00:16:08;;;;;;;6.40;5.10;;;;;;;13.07;69.78;100308.91;1711571;83;21308;-74
2022/09/23 00:18:35;;;;;;;7.87;5.43;;;;;;;13.11;69.80;100311.28;1713163;83;21373;-73
2022/09/23 00:21:05;;;;;;;6.40;5.30;;;;;;;13.07;69.65;100309.70;1694747;83;22127;-73
2022/09/23 00:23:31;;;;;;;7.10;5.67;;;;;;;13.07;69.67;100304.89;1690088;85;21282;-74
2022/09/23 00:26:00;;;;;;;7.57;6.23;;;;;;;13.06;69.63;100297.91;1710420;83;21257;-74
2022/09/23 00:28:26;;;;;;;8.57;5.80;;;;;;;13.05;69.71;100293.63;1711580;83;21314;-73
2022/09/23 00:30:53;;;;;;;7.77;5.60;;;;;;;13.05;69.75;100299.78;1679505;83;21321;-74
2022/09/23 00:33:20;;;;;;;6.50;5.17;;;;;;;13.08;69.77;100296.55;1701636;83;21275;-73
2022/09/23 00:35:46;;;;;;;7.27;5.43;;;;;;;13.10;69.75;100301.65;1711972;83;21399;-73
2022/09/23 00:38:13;;;;;;;7.07;5.47;;;;;;;13.10;69.70;100289.58;1712004;83;22454;-72
2022/09/23 00:40:45;;;;;;;6.73;5.57;;;;;;;13.16;69.50;100291.12;1712980;83;21301;-74
2022/09/23 00:43:13;;;;;;;6.93;4.80;;;;;;;13.13;69.49;100289.82;1714361;83;21295;-74
2022/09/23 00:45:48;;;;;;;6.53;4.63;;;;;;;13.13;69.55;100290.36;1712716;83;21815;-73
2022/09/23 00:48:17;;;;;;;6.60;5.60;;;;;;;13.13;69.59;100288.48;1714231;83;21325;-73
2022/09/23 00:50:48;;;;;;;7.57;5.40;;;;;;;13.15;69.60;100286.84;1714322;83;21458;-73
2022/09/23 00:53:18;;;;;;;8.20;5.87;;;;;;;13.17;69.57;100287.38;1714334;83;21239;-73
2022/09/23 00:55:51;;;;;;;8.20;5.87;;;;;;;13.20;69.59;100284.13;1713752;83;21066;-73
2022/09/23 00:58:22;;;;;;;7.20;5.47;;;;;;;13.21;69.52;100285.73;1710865;83;21185;-73
2022/09/23 01:00:49;;;;;;;8.05;5.47;;;;;;;13.19;69.45;100290.56;1711642;83;24670;-73
2022/09/23 01:03:18;;;;;;;8.07;5.90;;;;;;;13.16;69.39;100289.77;1710918;83;21071;-73
2022/09/23 01:05:44;;;;;;;7.43;6.00;;;;;;;13.16;69.47;100293.80;1677899;84;21419;-73
2022/09/23 01:08:12;;;;;;;6.70;5.47;;;;;;;13.15;69.48;100290.33;1630145;84;21199;-73
2022/09/23 01:10:52;;;;;;;8.87;5.77;;;;;;;13.17;69.54;100290.06;1678238;84;22019;-73
2022/09/23 01:13:45;;;;;;;6.93;5.90;;;;;;;13.20;69.45;100288.70;1678045;84;21293;-73
2022/09/23 01:16:35;;;;;;;7.10;5.37;;;;;;;13.16;69.30;100287.09;1680285;85;21300;-74
2022/09/23 01:19:27;;;;;;;8.03;6.27;;;;;;;13.12;69.34;100286.86;1675955;84;21303;-73
2022/09/23 01:22:30;;;;;;;7.50;5.83;;;;;;;13.11;69.32;100281.79;1678777;84;21243;-74
2022/09/23 01:25:30;;;;;;;8.37;5.97;;;;;;;13.12;69.39;100287.41;1673639;84;21768;-74
2022/09/23 01:28:30;;;;;;;7.80;5.53;;;;;;;13.13;69.45;100280.98;1676716;84;21814;-74
2022/09/23 01:31:12;;;;;;;7.00;5.00;;;;;;;13.15;69.44;100286.84;1675843;85;21378;-72
2022/09/23 01:33:49;;;;;;;7.87;5.93;;;;;;;13.15;69.43;100276.12;1678332;84;21154;-74
2022/09/23 01:36:24;;;;;;;7.60;6.00;;;;;;;13.12;69.37;100282.84;1678944;84;21282;-74
2022/09/23 01:39:02;;;;;;;7.70;5.57;;;;;;;13.10;69.39;100280.20;1682930;84;21805;-73
2022/09/23 01:42:08;;;;;;;8.07;6.80;;;;;;;13.07;69.43;100279.41;1677454;84;21640;-76
2022/09/23 01:44:41;;;;;;;7.73;5.93;;;;;;;13.02;69.48;100270.05;1677696;84;21406;-74
2022/09/23 01:47:13;;;;;;;8.07;6.40;;;;;;;13.06;69.63;100279.13;1676496;84;21878;-74
2022/09/23 01:49:56;;;;;;;7.17;6.47;;;;;;;13.07;69.62;100270.83;1677429;84;21303;-73
2022/09/23 01:52:37;;;;;;;7.27;6.17;;;;;;;13.09;69.57;100271.88;1677486;84;21311;-74
2022/09/23 01:55:21;;;;;;;8.67;6.30;;;;;;;13.07;69.55;100273.51;1676405;84;21310;-73
2022/09/23 01:58:01;;;;;;;7.30;6.30;;;;;;;13.06;69.57;100271.09;1676504;84;21362;-73
2022/09/23 02:00:30;;;;;;;6.20;5.40;;;;;;;13.09;69.64;100271.33;1675770;84;21342;-74
2022/09/23 02:03:09;;;;;;;8.37;6.17;;;;;;;13.12;69.61;100270.77;1671987;84;21440;-74
2022/09/23 02:05:39;;;;;;;9.03;6.27;;;;;;;13.12;69.56;100274.79;1675218;84;21359;-73
2022/09/23 02:08:15;;;;;;;8.67;6.50;;;;;;;13.12;69.53;100267.29;1679669;84;21695;-72
2022/09/23 02:10:52;;;;;;;7.93;6.57;;;;;;;13.14;69.49;100273.19;1676465;84;21167;-72
2022/09/23 02:13:28;;;;;;;9.23;7.20;;;;;;;13.14;69.44;100266.48;1676096;84;21804;-73
2022/09/23 02:15:59;;;;;;;7.60;6.37;;;;;;;13.13;69.41;100263.00;1675731;84;21900;-72
2022/09/23 02:18:33;;;;;;;8.77;6.43;;;;;;;13.14;69.36;100261.12;1676656;84;21414;-74
2022/09/23 02:21:05;;;;;;;8.23;6.90;;;;;;;13.11;69.30;100270.52;1675191;84;21362;-75
2022/09/23 02:23:41;;;;;;;7.17;5.90;;;;;;;13.08;69.38;100261.69;1676436;84;21270;-73
2022/09/23 02:26:35;;;;;;;9.10;6.87;;;;;;;13.08;69.38;100269.73;1676189;84;21196;-73
2022/09/23 02:29:25;;;;;;;8.37;6.47;;;;;;;13.08;69.39;100261.69;1677595;84;21403;-73
2022/09/23 02:32:11;;;;;;;7.92;5.75;;;;;;;13.11;69.39;100272.41;1664931;85;21293;-74
2022/09/23 02:35:04;;;;;;;10.07;6.53;;;;;;;13.09;69.39;100261.15;1676548;84;21021;-74
2022/09/23 02:37:57;;;;;;;7.70;6.20;;;;;;;13.06;69.40;100261.19;1677799;85;21397;-74
2022/09/23 02:40:36;;;;;;;8.17;6.57;;;;;;;13.06;69.46;100259.84;1676590;84;21617;-73
2022/09/23 02:43:39;;;;;;;8.97;6.13;;;;;;;13.11;69.54;100261.68;1677029;84;21208;-73
2022/09/23 02:46:06;;;;;;;7.43;6.30;;;;;;;13.13;69.46;100259.53;1676568;84;21321;-73
2022/09/23 02:48:40;;;;;;;9.47;6.40;;;;;;;13.14;69.29;100262.46;1677283;85;21868;-74
2022/09/23 02:51:07;;;;;;;8.37;6.53;;;;;;;13.10;69.24;100264.11;1651357;84;21218;-73
2022/09/23 02:53:34;;;;;;;9.73;6.37;;;;;;;13.10;69.25;100260.09;1676512;84;21341;-73
2022/09/23 02:56:02;;;;;;;8.03;6.43;;;;;;;13.12;69.29;100257.36;1676178;84;21274;-73
2022/09/23 02:58:29;;;;;;;6.83;5.83;;;;;;;13.19;69.29;100262.41;1672038;84;21685;-73
2022/09/23 03:01:31;;;;;;;7.27;6.47;;;;;;;13.19;69.06;100259.72;1675772;84;21332;-74
2022/09/23 03:04:09;;;;;;;8.47;6.47;;;;;;;13.17;69.00;100265.13;1675596;84;21252;-73
2022/09/23 03:07:06;;;;;;;7.50;5.90;;;;;;;13.19;69.02;100257.58;1674039;84;21767;-74
2022/09/23 03:09:47;;;;;;;8.60;5.80;;;;;;;13.20;68.98;100260.00;1676535;84;21234;-75
2022/09/23 03:12:34;;;;;;;6.83;5.80;;;;;;;13.21;68.96;100264.27;1681326;84;21632;-73
2022/09/23 03:15:18;;;;;;;6.97;5.90;;;;;;;13.21;68.99;100262.13;1676432;84;21028;-74
2022/09/23 03:18:07;;;;;;;8.67;6.57;;;;;;;13.20;69.02;100260.00;1676369;84;21357;-74
2022/09/23 03:20:39;;;;;;;6.97;5.77;;;;;;;13.21;69.00;100266.95;1677153;84;21329;-74
2022/09/23 03:23:08;;;;;;;6.93;6.07;;;;;;;13.22;68.94;100267.75;1677776;85;21267;-74
2022/09/23 03:25:38;;;;;;;7.60;6.60;;;;;;;13.17;68.88;100262.45;1676693;84;21831;-74
2022/09/23 03:28:05;;;;;;;8.13;6.40;;;;;;;13.17;68.98;100267.81;1675328;84;21272;-73
2022/09/23 03:30:34;;;;;;;8.77;6.10;;;;;;;13.22;69.00;100267.20;1675939;84;21340;-73
2022/09/23 03:33:00;;;;;;;7.00;6.10;;;;;;;13.26;68.98;100264.79;1647749;84;21392;-73
2022/09/23 03:35:27;;;;;;;7.60;6.27;;;;;;;13.31;68.95;100265.55;1673673;84;21347;-73
2022/09/23 03:38:15;;;;;;;7.97;6.60;;;;;;;13.38;68.91;100267.91;1676360;84;21480;-73
2022/09/23 03:40:42;;;;;;;7.63;6.50;;;;;;;13.41;68.74;100263.86;1663894;85;21858;-74
2022/09/23 03:43:11;;;;;;;8.33;6.47;;;;;;;13.34;68.54;100260.97;1647808;86;21304;-73
2022/09/23 03:45:38;;;;;;;9.87;7.00;;;;;;;13.35;68.62;100266.58;1677563;85;21713;-73
2022/09/23 03:48:06;;;;;;;8.17;6.17;;;;;;;13.37;68.64;100266.31;1677585;85;21341;-73
2022/09/23 03:50:34;;;;;;;9.20;7.00;;;;;;;13.40;68.61;100270.33;1648553;84;21789;-73
2022/09/23 03:53:01;;;;;;;11.20;6.60;;;;;;;13.41;68.57;100265.20;1676197;84;21328;-73
2022/09/23 03:55:27;;;;;;;7.17;6.00;;;;;;;13.41;68.50;100265.20;1647435;86;21298;-72
2022/09/23 03:57:54;;;;;;;8.23;6.00;;;;;;;13.40;68.49;100266.30;1711724;83;21171;-73
2022/09/23 04:00:21;;;;;;;7.53;5.97;;;;;;;13.41;68.46;100266.55;1711164;83;22814;-73
2022/09/23 04:02:48;;;;;;;6.97;5.73;;;;;;;13.38;68.36;100275.41;1711177;83;21223;-73
2022/09/23 04:05:16;;;;;;;7.23;6.33;;;;;;;13.35;68.34;100270.61;1711085;83;21808;-73
2022/09/23 04:07:43;;;;;;;6.50;5.43;;;;;;;13.35;68.37;100269.81;1711338;83;21321;-73
2022/09/23 04:10:10;;;;;;;6.03;5.43;;;;;;;13.36;68.36;100268.75;1711546;83;21338;-72
2022/09/23 04:12:36;;;;;;;6.80;5.30;;;;;;;13.29;68.33;100269.08;1711450;83;21350;-73
2022/09/23 04:15:05;;;;;;;6.53;5.47;;;;;;;13.25;68.37;100271.24;1683892;83;21869;-73
2022/09/23 04:17:32;;;;;;;6.37;5.50;;;;;;;13.23;68.42;100270.16;1684304;83;21409;-74
2022/09/23 04:19:59;;;;;;;6.83;5.23;;;;;;;13.30;68.47;100272.01;1712380;83;21246;-74
2022/09/23 04:22:25;;;;;;;8.00;5.40;;;;;;;13.40;68.36;100271.66;1713100;83;21615;-75
2022/09/23 04:24:51;;;;;;;6.83;5.83;;;;;;;13.48;68.28;100278.54;1714242;83;21185;-74
2022/09/23 04:27:18;;;;;;;7.20;5.80;;;;;;;13.51;68.03;100271.27;1712874;83;21341;-73
2022/09/23 04:29:44;;;;;;;6.37;5.53;;;;;;;13.47;68.03;100277.50;1711569;83;21142;-73
2022/09/23 04:32:11;;;;;;;6.67;5.20;;;;;;;13.46;68.03;100271.84;1711700;83;21259;-73
2022/09/23 04:34:39;;;;;;;7.43;5.67;;;;;;;13.47;67.92;100276.16;1710541;83;21203;-74
2022/09/23 04:37:06;;;;;;;7.10;5.70;;;;;;;13.48;67.94;100275.86;1710699;83;21775;-73
2022/09/23 04:39:32;;;;;;;7.53;5.57;;;;;;;13.52;67.87;100280.94;1711843;83;21319;-73
2022/09/23 04:41:58;;;;;;;8.80;5.90;;;;;;;13.54;67.77;100276.06;1711659;83;21808;-73
2022/09/23 04:44:27;;;;;;;7.50;6.00;;;;;;;13.55;67.67;100276.87;1711034;83;21754;-73
2022/09/23 04:46:54;;;;;;;7.60;5.53;;;;;;;13.57;67.60;100281.42;1711762;83;21662;-73
2022/09/23 04:49:20;;;;;;;6.93;5.70;;;;;;;13.61;67.54;100281.10;1711978;83;21739;-73
2022/09/23 04:51:46;;;;;;;7.03;6.10;;;;;;;13.64;67.40;100276.52;1711542;83;21283;-73
2022/09/23 04:54:15;;;;;;;6.77;5.50;;;;;;;13.67;67.32;100274.61;1710322;83;21362;-73
2022/09/23 04:56:44;;;;;;;7.30;5.80;;;;;;;13.71;67.25;100278.31;1711422;83;21954;-73
2022/09/23 04:59:10;;;;;;;6.17;5.30;;;;;;;13.74;67.17;100273.72;1711153;83;21365;-74
2022/09/23 05:01:37;;;;;;;9.73;5.97;;;;;;;13.80;67.10;100277.95;1711208;83;21251;-74
2022/09/23 05:04:07;;;;;;;8.40;5.50;;;;;;;13.84;66.89;100273.61;1711415;83;21384;-74
2022/09/23 05:06:34;;;;;;;7.70;5.60;;;;;;;13.90;66.75;100274.91;1711400;83;21367;-74
2022/09/23 05:09:06;;;;;;;6.30;5.30;;;;;;;13.94;66.49;100274.03;1710390;83;21325;-75
2022/09/23 05:11:32;;;;;;;;;;;;;;;13.95;66.31;100282.37;1713509;83;21347;-74
2022/09/23 05:13:59;;;;;;;7.83;5.53;;;;;;;13.97;66.23;100280.18;1714434;83;20201;-74
2022/09/23 05:16:26;;;;;;;8.60;5.50;;;;;;;13.98;66.03;100279.09;1713906;83;21312;-73
2022/09/23 05:18:53;;;;;;;5.83;4.40;;;;;;;14.00;66.01;100282.84;1713175;83;22440;-74
2022/09/23 05:21:22;;;;;;;7.67;5.07;;;;;;;14.01;65.82;100278.52;1713853;83;21437;-74
2022/09/23 05:23:57;;;;;;;6.40;5.20;;;;;;;13.94;65.59;100281.30;1714369;83;21341;-74
2022/09/23 05:26:24;;;;;;;5.63;4.77;;;;;;;13.90;65.70;100273.56;1711696;83;21363;-74
2022/09/23 05:28:51;;;;;;;5.83;5.23;;;;;;;13.88;65.70;100277.86;1711435;83;21368;-74
2022/09/23 05:31:20;;;;;;;6.23;5.50;;;;;;;13.86;65.83;100276.02;1710635;83;21470;-75
2022/09/23 05:33:51;;;;;;;7.07;5.07;;;;;;;13.92;65.86;100278.91;1712352;83;21366;-74
2022/09/23 05:36:20;;;;;;;6.93;5.00;;;;;;;14.00;65.66;100282.30;1712858;83;21422;-74
2022/09/23 05:38:48;;;;;;;6.40;4.90;;;;;;;14.06;65.62;100279.81;1712115;83;21786;-73
2022/09/23 05:41:16;;;;;;;8.43;5.63;;;;;;;14.11;65.52;100276.80;1713366;83;21264;-74
2022/09/23 05:43:43;;;;;;;6.73;4.73;;;;;;;14.16;65.46;100279.44;1714313;83;21361;-74
2022/09/23 05:46:14;;;;;;;8.00;5.77;;;;;;;14.19;65.35;100273.50;1713903;83;21309;-74
2022/09/23 05:48:41;;;;;;;6.50;5.50;;;;;;;14.21;65.25;100276.67;1713120;83;21422;-74
2022/09/23 05:51:16;;;;;;;7.27;5.23;;;;;;;14.28;65.22;100273.91;1714206;83;21741;-72
2022/09/23 05:53:47;;;;;;;6.00;4.70;;;;;;;14.42;65.19;100270.52;1711457;83;21407;-73
2022/09/23 05:56:16;;;;;;;8.47;4.80;;;;;;;14.42;65.19;100270.52;1708164;83;22038;-72
2022/09/23 05:58:44;;;;;;;6.80;5.20;;;;;;;14.47;64.28;100275.25;1711967;83;21298;-74
2022/09/23 06:01:13;;;;;;;6.77;5.03;;;;;;;14.54;63.89;100277.61;1712231;83;21378;-72
2022/09/23 06:03:39;;;;;;;6.80;5.33;;;;;;;14.57;63.77;100277.58;1711253;83;21976;-74
2022/09/23 06:06:08;;;;;;;6.70;5.13;;;;;;;14.61;63.29;100279.42;1711783;83;21383;-74
2022/09/23 06:08:36;;;;;;;7.50;5.67;;;;;;;14.65;63.56;100272.91;1708596;83;21459;-73
2022/09/23 06:11:07;;;;;;;6.13;5.17;;;;;;;14.68;62.99;100276.38;1708981;83;21399;-74
2022/09/23 06:13:39;;;;;;;6.28;4.92;;;;;;;14.68;62.99;100276.38;1710192;83;21948;-74
2022/09/23 06:16:11;;;;;;;6.00;4.77;;;;;;;14.77;62.62;100279.45;1711724;83;20990;-74
2022/09/23 06:18:42;;;;;;;6.57;5.20;;;;;;;14.81;62.45;100275.64;1712623;83;21855;-73
2022/09/23 06:21:14;;;;;;;6.62;5.17;;;;;;;14.81;62.45;100275.64;1712446;83;21598;-74
2022/09/23 06:23:42;;;;;;;6.58;5.37;;;;;;;14.87;62.34;100282.54;1714186;83;21122;-74
2022/09/23 06:26:13;;;;;;;6.53;5.30;;;;;;;14.92;62.20;100283.00;1714373;83;21121;-74
2022/09/23 06:28:43;;;;;;;6.27;4.70;;;;;;;14.96;62.04;100274.04;1714399;83;21626;-74
2022/09/23 06:31:14;;;;;;;6.83;5.00;;;;;;;15.05;61.82;100282.25;1713346;83;21418;-74
2022/09/23 06:33:43;;;;;;;8.93;4.90;;;;;;;15.05;61.82;100282.25;1711489;83;21825;-74
2022/09/23 06:36:11;;;;;;;7.83;5.47;;;;;;;15.18;61.37;100282.84;1710404;83;21104;-73
2022/09/23 06:38:42;;;;;;;7.07;5.10;;;;;;;15.23;61.39;100277.39;1713276;83;22252;-74
2022/09/23 06:41:11;;;;;;;;;;;;;;;15.23;61.39;100277.39;1715688;83;21747;-73
2022/09/23 06:43:39;;;;;;;7.00;5.17;;;;;;;15.25;61.34;100284.61;1711078;83;21508;-74
2022/09/23 06:46:06;;;;;;;7.50;5.30;;;;;;;15.23;61.40;100280.08;1712629;83;21716;-74
2022/09/23 06:48:39;;;;;;;6.83;5.53;;;;;;;15.27;61.10;100282.98;1713739;83;22236;-73
2022/09/23 06:51:06;;;;;;;6.67;4.77;;;;;;;15.31;61.05;100279.16;1678366;83;21675;-74
2022/09/23 06:53:33;;;;;;;8.40;5.50;;;;;;;15.37;60.81;100282.80;1676309;85;21907;-74
2022/09/23 06:56:02;;;;;;;6.60;5.00;;;;;;;15.37;60.33;100280.67;1677253;84;22316;-74
2022/09/23 06:58:30;;;;;;;10.53;6.13;;;;;;;15.40;60.31;100279.53;1676234;84;21726;-75
2022/09/23 07:01:06;;;;;;;11.37;5.67;;;;;;;15.42;59.86;100285.39;1676752;84;21704;-75
2022/09/23 07:03:33;;;;;;;7.30;5.10;;;;;;;15.40;59.72;100282.22;1677672;85;21841;-75
2022/09/23 07:06:00;;;;;;;6.73;5.37;;;;;;;15.42;59.68;100281.91;1677234;84;22162;-74
2022/09/23 07:08:28;;;;;;;8.07;5.23;;;;;;;15.44;59.79;100280.53;1676240;84;21884;-75
2022/09/23 07:10:57;;;;;;;7.27;5.47;;;;;;;15.50;59.91;100279.90;1676300;84;22128;-74
2022/09/23 07:13:24;;;;;;;7.37;5.03;;;;;;;15.52;59.49;100269.61;1676297;84;22209;-74
2022/09/23 07:15:52;;;;;;;7.67;5.27;;;;;;;15.57;59.50;100268.19;1676366;84;22352;-74
2022/09/23 07:18:22;;;;;;;8.33;5.43;;;;;;;15.63;59.27;100271.05;1676416;84;21684;-75
2022/09/23 07:20:55;;;;;;;7.13;5.33;;;;;;;15.64;58.95;100275.32;1675499;84;22230;-74
2022/09/23 07:23:22;;;;;;;10.83;5.63;;;;;;;15.57;58.69;100274.92;1673828;84;22114;-73
2022/09/23 07:25:50;;;;;;;8.30;5.57;;;;;;;15.45;58.98;100275.38;1676579;84;21816;-74
2022/09/23 07:28:18;;;;;;;6.70;6.00;;;;;;;15.35;59.10;100281.50;1676450;84;21811;-74
2022/09/23 07:30:45;;;;;;;8.33;5.87;;;;;;;15.23;59.38;100272.53;1675974;84;21826;-74
2022/09/23 07:33:12;;;;;;;9.03;6.60;;;;;;;15.17;59.81;100275.88;1676313;84;22245;-74
2022/09/23 07:35:39;;;;;;;7.50;6.20;;;;;;;15.16;60.29;100274.26;1676187;84;22215;-73
2022/09/23 07:38:08;;;;;;;8.07;5.70;;;;;;;15.18;60.23;100274.77;1676944;84;21751;-73
2022/09/23 07:40:35;;;;;;;6.67;5.90;;;;;;;15.19;60.43;100272.33;1677673;85;22293;-74
2022/09/23 07:43:03;;;;;;;6.47;5.60;;;;;;;15.21;60.66;100263.42;1677505;84;21806;-73
2022/09/23 07:45:32;;;;;;;5.67;5.07;;;;;;;15.34;60.92;100272.62;1677451;85;21845;-74
2022/09/23 07:47:59;;;;;;;7.00;4.83;;;;;;;15.40;61.04;100263.38;1678242;85;21778;-74
2022/09/23 07:50:28;;;;;;;11.17;5.83;;;;;;;15.42;60.69;100262.52;1677122;85;21830;-74
2022/09/23 07:52:58;;;;;;;8.90;5.63;;;;;;;15.39;60.40;100263.11;1677894;85;21957;-73
2022/09/23 07:55:24;;;;;;;7.30;5.43;;;;;;;15.37;60.43;100255.89;1677460;85;21783;-74
2022/09/23 07:57:51;;;;;;;7.87;5.57;;;;;;;15.35;60.22;100258.63;1676732;84;21684;-76
2022/09/23 08:00:18;;;;;;;7.23;5.23;;;;;;;15.37;60.18;100260.48;1676683;84;21870;-71
2022/09/23 08:02:44;;;;;;;7.80;5.20;;;;;;;15.42;60.20;100253.65;1676343;84;22086;-73
2022/09/23 08:05:11;;;;;;;6.97;5.30;;;;;;;15.47;59.88;100261.09;1675968;84;22316;-74
2022/09/23 08:07:37;;;;;;;6.23;5.10;;;;;;;15.51;59.86;100251.08;1676224;84;21922;-74
2022/09/23 08:10:05;;;;;;;6.87;5.40;;;;;;;15.60;59.53;100251.44;1676238;84;21807;-74
2022/09/23 08:12:32;;;;;;;6.40;5.40;;;;;;;15.74;59.75;100246.64;1676039;84;22469;-73
2022/09/23 08:14:59;;;;;;;5.60;5.00;;;;;;;15.87;59.74;100248.55;1676238;84;21742;-73
2022/09/23 08:17:26;;;;;;;5.83;5.10;;;;;;;16.00;59.00;100249.09;1676270;84;21877;-75
2022/09/23 08:19:53;;;;;;;5.73;4.90;;;;;;;16.10;58.84;100246.73;1676491;84;21812;-73
2022/09/23 08:22:22;;;;;;;8.23;6.33;;;;;;;16.20;58.46;100230.35;1671281;84;21801;-73
2022/09/23 08:24:49;;;;;;;8.33;5.97;;;;;;;16.29;58.27;100244.71;1648148;86;21076;-73
2022/09/23 08:27:18;;;;;;;7.07;5.60;;;;;;;16.44;58.10;100246.27;1677745;85;21025;-73
2022/09/23 08:29:46;;;;;;;7.07;6.20;;;;;;;16.63;57.65;100241.52;1677292;84;21728;-74
2022/09/23 08:32:13;;;;;;;6.83;5.40;;;;;;;16.87;56.88;100243.14;1677378;85;21099;-73
2022/09/23 08:34:40;;;;;;;6.77;5.50;;;;;;;16.99;56.26;100243.95;1677645;85;21586;-73
2022/09/23 08:37:10;;;;;;;7.77;5.90;;;;;;;17.04;55.68;100233.81;1677241;84;21583;-74
2022/09/23 08:39:37;;;;;;;7.10;5.93;;;;;;;17.08;55.43;100237.52;1677383;85;21045;-74
2022/09/23 08:42:15;;;;;;;7.20;6.23;;;;;;;17.06;55.37;100234.88;1677571;85;21052;-74
2022/09/23 08:44:54;;;;;;;8.93;7.13;;;;;;;16.99;55.35;100231.81;1677545;85;21099;-74
2022/09/23 08:47:31;;;;;;;9.27;6.40;;;;;;;16.94;55.58;100231.38;1677826;85;21246;-73
2022/09/23 08:50:06;;;;;;;6.93;5.50;;;;;;;16.87;55.29;100233.15;1678069;85;21063;-74
2022/09/23 08:52:55;;;;;;;8.00;5.73;;;;;;;16.69;55.44;100237.36;1677876;85;21448;-73
2022/09/23 08:55:49;;;;;;;5.80;4.08;;;;;;;16.41;56.14;100232.04;1677740;85;21087;-74
2022/09/23 08:58:54;;;;;;;4.37;3.02;;;;;;;15.86;56.57;100238.84;1677945;85;21574;-74
2022/09/23 09:01:32;;;;;;;7.27;3.10;;;;;;;15.86;56.57;100299.44;1677956;85;21257;-73
2022/09/23 09:04:03;;;;;;;3.07;1.60;;;;;;;15.45;56.68;100235.56;1679945;85;21052;-73
2022/09/23 09:06:40;;;;;;;2.05;1.30;;;;;;;15.23;56.92;100247.80;1668760;85;21771;-72
2022/09/23 09:09:52;;;;;;;2.77;1.50;;;;;;;15.10;57.43;100248.53;1650248;87;21056;-72
2022/09/23 09:12:44;;;;;;;2.83;1.57;;;;;;;15.02;57.57;100254.59;1650326;87;21779;-72
2022/09/23 09:15:20;;;;;;;2.60;1.60;;;;;;;14.94;58.27;100249.90;1650253;87;21680;-72
2022/09/23 09:18:01;;;;;;;2.50;1.63;;;;;;;14.92;58.66;100252.07;1650135;86;21811;-72
2022/09/23 09:21:04;;;;;;;3.57;1.83;;;;;;;14.91;59.11;100252.62;1646912;86;21740;-71
2022/09/23 09:23:54;;;;;;;3.17;2.00;;;;;;;14.93;60.12;100243.70;1622797;88;21777;-72
2022/09/23 09:26:39;;;;;;;3.93;1.60;;;;;;;14.93;60.12;100230.25;1622388;88;21794;-72
2022/09/23 09:29:21;;;;;;;2.95;2.00;;;;;;;15.06;59.81;100249.42;1650008;87;21709;-73
2022/09/23 09:31:49;;;;;;;4.50;2.80;;;;;;;15.12;59.54;100249.05;1650110;87;21135;-74
2022/09/23 09:34:30;;;;;;;3.13;2.10;;;;;;;15.17;59.48;100247.63;1650139;87;21826;-71
2022/09/23 09:37:20;;;;;;;3.40;1.90;;;;;;;15.19;59.14;100245.42;1650122;87;21791;-72
2022/09/23 09:39:46;;;;;;;4.53;2.17;;;;;;;15.18;59.08;100241.14;1650235;87;21100;-71
2022/09/23 09:42:20;;;;;;;2.90;1.80;;;;;;;15.22;58.77;100235.97;1650214;87;22288;-71
2022/09/23 09:45:04;;;;;;;4.23;1.93;;;;;;;15.22;58.75;100234.07;1650077;87;21754;-72
2022/09/23 09:47:48;;;;;;;3.37;2.07;;;;;;;15.34;58.69;100234.16;1650195;87;21783;-71
2022/09/23 09:50:40;;;;;;;2.60;1.70;;;;;;;15.34;58.69;100234.16;1650186;87;21592;-71
2022/09/23 09:53:34;;;;;;;2.98;1.80;;;;;;;15.47;58.63;100233.39;1664394;84;21737;-72
2022/09/23 09:56:19;;;;;;;7.57;2.50;;;;;;;15.60;58.53;100230.45;1673334;84;21837;-72
2022/09/23 09:58:53;;;;;;;14.63;2.67;;;;;;;15.80;58.15;100231.99;1668552;84;22217;-72
2022/09/23 10:01:24;;;;;;;3.10;1.60;;;;;;;15.92;57.19;100230.92;1654051;85;21714;-72
2022/09/23 10:03:56;;;;;;;2.90;1.30;;;;;;;15.98;57.02;100233.77;1650106;87;21680;-72
2022/09/23 10:06:26;;;;;;;4.23;1.80;;;;;;;16.09;56.16;100232.47;1670528;85;21621;-73
2022/09/23 10:09:12;;;;;;;28.90;4.40;;;;;;;16.28;55.98;100228.83;1674269;84;22144;-72
2022/09/23 10:11:39;;;;;;;2.80;1.90;;;;;;;16.52;54.82;100228.55;1672583;84;21647;-73
2022/09/23 10:14:17;;;;;;;3.83;2.10;;;;;;;16.63;54.98;100234.77;1676508;84;21144;-72
2022/09/23 10:16:47;;;;;;;4.07;2.40;;;;;;;16.63;54.98;100234.77;1677609;84;21063;-74
2022/09/23 10:19:24;;;;;;;4.40;2.30;;;;;;;16.73;54.41;100234.30;1677413;84;21194;-73
2022/09/23 10:21:55;;;;;;;4.33;2.50;;;;;;;16.78;54.78;100228.80;1674216;84;21985;-74
2022/09/23 10:24:25;;;;;;;2.90;2.00;;;;;;;16.77;55.13;100229.35;1677040;84;21559;-75
2022/09/23 10:27:10;;;;;;;3.17;2.40;;;;;;;16.72;55.22;100232.71;1649471;84;21036;-73
2022/09/23 10:29:40;;;;;;;3.33;2.57;;;;;;;16.60;54.99;100226.50;1676251;84;21710;-73
2022/09/23 10:32:36;;;;;;;3.63;2.53;;;;;;;16.41;55.88;100225.30;1675277;84;21032;-73
2022/09/23 10:35:12;;;;;;;3.83;2.30;;;;;;;16.43;55.02;100219.06;1674812;84;21160;-74
2022/09/23 10:37:54;;;;;;;3.17;2.00;;;;;;;16.56;53.24;100218.22;1676419;84;21071;-72
2022/09/23 10:46:40;;;;;;;3.50;1.60;;;;;;;16.69;52.38;100219.28;1677626;85;21071;-75
2022/09/23 10:49:42;;;;;;;2.42;1.45;;;;;;;16.79;51.70;100220.97;1676419;84;21738;-73
2022/09/23 10:52:36;;;;;;;3.40;1.93;;;;;;;16.66;52.13;100219.89;1676505;84;20985;-73
2022/09/23 10:55:17;;;;;;;3.00;1.40;;;;;;;16.65;52.17;100223.70;1682511;83;21689;-74
2022/09/23 10:57:52;;;;;;;2.10;1.50;;;;;;;16.58;52.22;100215.20;1676440;84;22374;-73
2022/09/23 11:00:54;;;;;;;3.37;2.00;;;;;;;16.60;51.87;100218.41;1671372;85;21083;-73
2022/09/23 11:03:53;;;;;;;3.47;1.67;;;;;;;16.65;52.51;100207.52;1642723;87;22253;-73
2022/09/23 11:06:40;;;;;;;3.10;1.70;;;;;;;16.73;53.01;100205.98;1688764;85;21070;-73
2022/09/23 11:09:24;;;;;;;4.10;2.40;;;;;;;16.53;52.83;100206.70;1679078;85;21050;-74
2022/09/23 11:12:09;;;;;;;3.33;2.03;;;;;;;16.53;52.83;100206.70;1710520;83;21086;-73
2022/09/23 11:15:10;;;;;;;3.33;2.00;;;;;;;16.29;53.08;100210.23;1711363;83;21710;-73
2022/09/23 11:18:07;;;;;;;7.60;2.27;;;;;;;16.14;52.99;100199.22;1710639;83;22378;-74
2022/09/23 11:20:44;;;;;;;3.43;2.00;;;;;;;15.99;52.83;100203.05;1711253;83;21042;-74
2022/09/23 11:23:36;;;;;;;3.33;2.00;;;;;;;16.11;52.78;100200.62;1710636;83;22249;-74
2022/09/23 11:26:23;;;;;;;2.45;1.70;;;;;;;16.14;52.44;100195.97;1711757;83;21711;-73
2022/09/23 11:29:07;;;;;;;3.03;2.13;;;;;;;16.07;53.01;100196.94;1712112;83;21053;-73
2022/09/23 11:31:46;;;;;;;4.80;2.07;;;;;;;16.22;53.37;100202.53;1709678;83;21684;-73
2022/09/23 11:34:45;;;;;;;3.70;2.00;;;;;;;16.26;52.48;100200.84;1713635;83;21651;-73
2022/09/23 11:37:19;;;;;;;3.30;2.13;;;;;;;16.33;52.79;100194.48;1711320;83;22190;-74
2022/09/23 11:40:03;;;;;;;5.43;2.37;;;;;;;16.56;52.90;100191.27;1712101;83;22470;-72
2022/09/23 11:42:41;;;;;;;4.17;2.50;;;;;;;16.57;52.07;100192.84;1711815;83;21761;-74
2022/09/23 11:45:17;;;;;;;3.70;2.10;;;;;;;16.52;52.15;100191.64;1712283;83;21182;-73
2022/09/23 11:47:50;;;;;;;4.13;2.23;;;;;;;16.52;52.15;100191.64;1709752;83;21079;-74
2022/09/23 11:50:34;;;;;;;3.67;2.20;;;;;;;16.43;52.57;100193.45;1710540;83;22372;-76
2022/09/23 11:53:21;;;;;;;4.30;2.27;;;;;;;16.39;53.14;100193.83;1683604;83;21093;-73
2022/09/23 11:56:02;;;;;;;4.17;1.83;;;;;;;16.22;54.38;100190.41;1712181;83;21100;-73
2022/09/23 11:58:32;;;;;;;2.67;1.87;;;;;;;16.06;54.27;100190.52;1684305;83;21391;-73
2022/09/23 12:01:11;;;;;;;2.33;1.20;;;;;;;16.06;54.27;100190.52;1707804;83;21074;-74
2022/09/23 12:04:07;;;;;;;3.33;1.50;;;;;;;15.91;51.93;100187.58;1712193;83;21106;-74